createdAt,value
2017-12-12T00:00:51.470Z,0.63
2017-12-12T00:03:19.000Z,0.50
2017-12-12T00:05:46.499Z,0.70
2017-12-12T00:08:14.026Z,0.60
2017-12-12T00:10:41.519Z,0.50
2017-12-12T00:13:08.993Z,0.57
2017-12-12T00:15:36.504Z,0.63
2017-12-12T00:18:03.975Z,1.17
2017-12-12T00:20:31.489Z,0.70
2017-12-12T00:22:58.963Z,0.60
2017-12-12T00:25:26.486Z,2.20
2017-12-12T00:27:54.790Z,0.73
2017-12-12T00:30:22.290Z,2.73
2017-12-12T00:32:50.590Z,0.50
2017-12-12T00:35:18.146Z,0.50
2017-12-12T00:37:45.625Z,0.60
2017-12-12T00:40:13.143Z,0.60
2017-12-12T00:42:40.626Z,0.50
2017-12-12T00:45:08.903Z,0.57
2017-12-12T00:47:37.155Z,0.60
2017-12-12T00:50:04.685Z,0.50
2017-12-12T00:52:32.211Z,0.50
2017-12-12T00:55:00.511Z,0.53
2017-12-12T00:57:28.003Z,1.33
2017-12-12T00:59:55.485Z,0.60
2017-12-12T01:02:22.996Z,0.40
2017-12-12T01:04:50.514Z,0.70
2017-12-12T01:07:17.997Z,0.53
2017-12-12T01:09:46.306Z,0.83
2017-12-12T01:12:13.803Z,0.50
2017-12-12T01:14:41.290Z,0.50
2017-12-12T01:17:08.822Z,0.40
2017-12-12T01:19:36.298Z,0.50
2017-12-12T01:22:03.778Z,0.40
2017-12-12T01:24:31.290Z,0.70
2017-12-12T01:26:58.817Z,1.07
2017-12-12T01:29:26.314Z,0.67
2017-12-12T01:31:53.809Z,2.10
2017-12-12T01:34:21.342Z,0.43
2017-12-12T01:36:48.843Z,0.70
2017-12-12T01:39:16.392Z,0.60
2017-12-12T01:41:43.878Z,0.40
2017-12-12T01:44:11.358Z,0.40
2017-12-12T01:46:39.673Z,0.60
2017-12-12T01:49:07.202Z,0.40
2017-12-12T01:51:34.678Z,0.60
2017-12-12T01:54:02.215Z,0.60
2017-12-12T01:56:29.709Z,0.50
2017-12-12T01:58:57.988Z,0.60
2017-12-12T02:01:26.284Z,0.40
2017-12-12T02:03:53.795Z,0.50
2017-12-12T02:06:21.291Z,0.77
2017-12-12T02:08:49.592Z,0.83
2017-12-12T02:11:17.069Z,0.43
2017-12-12T02:13:44.953Z,0.70
2017-12-12T02:16:12.499Z,0.50
2017-12-12T02:18:40.004Z,0.43
2017-12-12T02:21:07.479Z,0.70
2017-12-12T02:23:34.988Z,0.50
2017-12-12T02:26:02.478Z,0.70
2017-12-12T02:28:30.015Z,1.30
2017-12-12T02:30:57.564Z,0.50
2017-12-12T02:33:25.038Z,0.60
2017-12-12T02:35:52.549Z,0.50
2017-12-12T02:38:20.046Z,0.80
2017-12-12T02:40:47.574Z,0.90
2017-12-12T02:43:15.063Z,0.93
2017-12-12T02:45:42.607Z,0.60
2017-12-12T02:48:10.150Z,0.50
2017-12-12T02:50:37.826Z,1.00
2017-12-12T02:53:06.983Z,0.60
2017-12-12T02:55:34.497Z,0.87
2017-12-12T02:58:02.010Z,0.50
2017-12-12T03:00:29.502Z,2.13
2017-12-12T03:02:57.034Z,1.37
2017-12-12T03:05:24.531Z,0.70
2017-12-12T03:07:52.015Z,0.80
2017-12-12T03:10:19.550Z,1.20
2017-12-12T03:12:47.080Z,2.30
2017-12-12T03:15:14.567Z,0.57
2017-12-12T03:17:42.057Z,0.60
2017-12-12T03:20:09.619Z,0.50
2017-12-12T03:22:37.201Z,0.63
2017-12-12T03:25:04.682Z,1.50
2017-12-12T03:27:32.938Z,0.60
2017-12-12T03:30:00.470Z,0.83
2017-12-12T03:32:27.951Z,0.60
2017-12-12T03:34:55.442Z,0.50
2017-12-12T03:37:23.735Z,0.87
2017-12-12T03:39:52.027Z,0.50
2017-12-12T03:42:19.511Z,0.70
2017-12-12T03:44:46.998Z,0.50
2017-12-12T03:47:14.523Z,0.50
2017-12-12T03:49:42.022Z,0.70
2017-12-12T03:52:09.534Z,0.50
2017-12-12T03:54:37.778Z,0.50
2017-12-12T03:57:05.305Z,0.50
2017-12-12T03:59:32.791Z,0.60
2017-12-12T04:02:00.308Z,0.60
2017-12-12T04:04:28.559Z,0.60
2017-12-12T04:06:56.082Z,0.50
2017-12-12T04:09:23.607Z,0.60
2017-12-12T04:11:51.855Z,0.50
2017-12-12T04:14:19.390Z,0.70
2017-12-12T04:16:46.930Z,0.50
2017-12-12T04:19:14.486Z,0.50
2017-12-12T04:21:42.738Z,0.50
2017-12-12T04:24:10.286Z,0.50
2017-12-12T04:26:37.763Z,0.50
2017-12-12T04:29:05.238Z,0.57
2017-12-12T04:31:32.817Z,0.60
2017-12-12T04:34:00.303Z,0.50
2017-12-12T04:36:27.992Z,0.50
2017-12-12T04:38:55.511Z,1.00
2017-12-12T04:41:23.814Z,0.60
2017-12-12T04:43:51.344Z,0.60
2017-12-12T04:46:19.658Z,0.70
2017-12-12T04:48:47.166Z,0.60
2017-12-12T04:51:14.663Z,0.60
2017-12-12T04:53:42.979Z,0.60
2017-12-12T04:56:10.506Z,0.63
2017-12-12T04:58:38.746Z,0.50
2017-12-12T05:01:06.257Z,0.70
2017-12-12T05:03:34.502Z,0.60
2017-12-12T05:06:02.031Z,0.70
2017-12-12T05:08:29.522Z,0.63
2017-12-12T05:10:57.067Z,0.60
2017-12-12T05:13:24.596Z,0.87
2017-12-12T05:15:52.097Z,0.50
2017-12-12T05:18:19.576Z,1.57
2017-12-12T05:20:47.097Z,0.73
2017-12-12T05:23:14.586Z,0.60
2017-12-12T05:25:42.127Z,0.73
2017-12-12T05:28:09.617Z,0.87
2017-12-12T05:30:37.095Z,0.87
2017-12-12T05:33:04.631Z,0.80
2017-12-12T05:35:32.178Z,0.60
2017-12-12T05:37:59.773Z,1.27
2017-12-12T05:40:27.280Z,1.37
2017-12-12T05:42:54.809Z,0.97
2017-12-12T05:45:22.326Z,1.20
2017-12-12T05:47:49.833Z,0.87
2017-12-12T05:50:17.367Z,1.10
2017-12-12T05:52:44.894Z,0.90
2017-12-12T05:55:13.174Z,0.80
2017-12-12T05:57:41.441Z,0.80
2017-12-12T06:00:08.950Z,0.97
2017-12-12T06:02:36.434Z,0.60
2017-12-12T06:05:03.964Z,0.90
2017-12-12T06:07:31.452Z,0.90
2017-12-12T06:09:58.939Z,0.93
2017-12-12T06:12:26.455Z,1.20
2017-12-12T06:14:53.962Z,1.30
2017-12-12T06:17:21.490Z,1.10
2017-12-12T06:19:48.986Z,1.20
2017-12-12T06:22:16.507Z,1.30
2017-12-12T06:24:44.005Z,1.00
2017-12-12T06:27:11.527Z,1.53
2017-12-12T06:29:39.072Z,1.03
2017-12-12T06:32:07.335Z,1.10
2017-12-12T06:34:35.659Z,1.67
2017-12-12T06:37:03.220Z,2.53
2017-12-12T06:39:30.711Z,1.00
2017-12-12T06:41:58.216Z,1.10
2017-12-12T06:44:25.730Z,2.23
2017-12-12T06:46:53.263Z,1.87
2017-12-12T06:49:22.180Z,1.77
2017-12-12T06:51:49.674Z,1.50
2017-12-12T06:54:17.212Z,1.80
2017-12-12T06:56:44.790Z,2.50
2017-12-12T06:59:12.312Z,2.13
2017-12-12T07:01:40.575Z,2.00
2017-12-12T07:04:08.084Z,2.50
2017-12-12T07:06:35.590Z,1.90
2017-12-12T07:09:03.297Z,1.83
2017-12-12T07:11:30.812Z,1.60
2017-12-12T07:13:58.338Z,2.00
2017-12-12T07:16:25.830Z,2.90
2017-12-12T07:18:53.310Z,2.10
2017-12-12T07:21:20.926Z,1.63
2017-12-12T07:23:48.416Z,2.90
2017-12-12T07:26:15.904Z,2.03
2017-12-12T07:28:43.416Z,2.20
2017-12-12T07:31:10.935Z,3.23
2017-12-12T07:33:38.467Z,2.37
2017-12-12T07:36:05.963Z,3.17
2017-12-12T07:38:33.442Z,2.27
2017-12-12T07:41:01.774Z,3.13
2017-12-12T07:43:29.318Z,1.93
2017-12-12T07:45:56.812Z,2.87
2017-12-12T07:48:24.304Z,2.30
2017-12-12T07:50:52.601Z,2.10
2017-12-12T07:53:20.090Z,3.60
2017-12-12T07:55:47.570Z,2.70
2017-12-12T07:58:15.083Z,2.73
2017-12-12T08:00:43.324Z,3.10
2017-12-12T08:03:10.894Z,3.10
2017-12-12T08:05:38.446Z,4.10
2017-12-12T08:08:05.949Z,6.03
2017-12-12T08:10:34.957Z,2.23
2017-12-12T08:13:03.254Z,2.33
2017-12-12T08:15:30.820Z,2.70
2017-12-12T08:17:58.327Z,2.70
2017-12-12T08:20:25.856Z,1.90
2017-12-12T08:22:53.347Z,2.53
2017-12-12T08:25:20.863Z,2.30
2017-12-12T08:27:48.422Z,2.80
2017-12-12T08:30:16.736Z,2.20
2017-12-12T08:32:44.222Z,4.33
2017-12-12T08:35:11.830Z,1.37
2017-12-12T08:37:40.138Z,2.00
2017-12-12T08:40:07.785Z,1.37
2017-12-12T08:42:35.280Z,1.73
2017-12-12T08:45:02.787Z,1.70
2017-12-12T08:47:30.311Z,2.40
2017-12-12T08:49:57.800Z,2.30
2017-12-12T08:52:25.419Z,1.67
2017-12-12T08:54:52.963Z,1.50
2017-12-12T08:57:21.202Z,2.50
2017-12-12T08:59:48.679Z,1.80
2017-12-12T09:02:16.211Z,2.33
2017-12-12T09:04:43.701Z,1.40
2017-12-12T09:07:11.198Z,2.80
2017-12-12T09:09:38.668Z,1.40
2017-12-12T09:12:06.210Z,1.77
2017-12-12T09:14:34.474Z,2.60
2017-12-12T09:17:02.003Z,2.17
2017-12-12T09:19:29.500Z,4.33
2017-12-12T09:21:57.034Z,2.93
2017-12-12T09:24:24.532Z,2.00
2017-12-12T09:26:52.043Z,1.50
2017-12-12T09:29:19.518Z,2.00
2017-12-12T09:31:47.026Z,2.17
2017-12-12T09:34:15.271Z,3.30
2017-12-12T09:36:42.761Z,2.87
2017-12-12T09:39:10.287Z,1.97
2017-12-12T09:41:37.771Z,4.17
2017-12-12T09:44:05.261Z,3.47
2017-12-12T09:46:33.530Z,1.17
2017-12-12T09:49:01.044Z,1.40
2017-12-12T09:51:28.580Z,1.90
2017-12-12T09:53:56.826Z,1.90
2017-12-12T09:56:24.340Z,2.10
2017-12-12T09:58:51.891Z,1.50
2017-12-12T10:01:20.167Z,2.10
2017-12-12T10:03:48.450Z,1.60
2017-12-12T10:06:16.858Z,1.80
2017-12-12T10:08:44.396Z,1.83
2017-12-12T10:11:12.647Z,1.43
2017-12-12T10:13:41.077Z,3.17
2017-12-12T10:16:08.828Z,1.43
2017-12-12T10:18:36.321Z,1.60
2017-12-12T10:21:03.844Z,3.27
2017-12-12T10:23:32.103Z,7.60
2017-12-12T10:25:59.587Z,1.73
2017-12-12T10:28:27.878Z,3.77
2017-12-12T10:30:56.139Z,2.20
2017-12-12T10:33:23.650Z,1.63
2017-12-12T10:35:51.127Z,1.80
2017-12-12T10:38:18.623Z,1.40
2017-12-12T10:40:46.103Z,4.07
2017-12-12T10:43:14.393Z,2.77
2017-12-12T10:45:42.832Z,1.13
2017-12-12T10:48:10.323Z,1.53
2017-12-12T10:50:37.857Z,1.60
2017-12-12T10:53:05.357Z,1.40
2017-12-12T10:55:33.622Z,5.07
2017-12-12T10:58:01.968Z,1.30
2017-12-12T11:00:29.499Z,1.10
2017-12-12T11:02:56.987Z,1.40
2017-12-12T11:05:24.513Z,1.33
2017-12-12T11:07:52.770Z,2.30
2017-12-12T11:10:20.313Z,1.60
2017-12-12T11:12:47.782Z,2.20
2017-12-12T11:15:15.262Z,0.90
2017-12-12T11:17:42.776Z,1.47
2017-12-12T11:20:10.264Z,1.40
2017-12-12T11:22:37.758Z,2.03
2017-12-12T11:25:05.283Z,2.87
2017-12-12T11:27:32.795Z,2.30
2017-12-12T11:30:01.079Z,1.70
2017-12-12T11:32:29.330Z,1.10
2017-12-12T11:34:57.031Z,3.23
2017-12-12T11:37:28.047Z,1.50
2017-12-12T11:39:55.535Z,1.73
2017-12-12T11:42:23.807Z,1.70
2017-12-12T11:44:52.048Z,1.53
2017-12-12T11:47:19.583Z,2.23
2017-12-12T11:49:47.061Z,2.43
2017-12-12T11:52:14.550Z,2.27
2017-12-12T11:54:42.070Z,2.53
2017-12-12T11:57:09.583Z,2.37
2017-12-12T11:59:37.073Z,1.63
2017-12-12T12:02:05.389Z,2.00
2017-12-12T12:04:32.907Z,1.57
2017-12-12T12:07:00.415Z,2.17
2017-12-12T12:09:27.946Z,1.90
2017-12-12T12:11:56.210Z,4.37
2017-12-12T12:14:23.703Z,1.70
2017-12-12T12:16:51.234Z,2.10
2017-12-12T12:19:18.717Z,1.97
2017-12-12T12:21:46.962Z,2.60
2017-12-12T12:24:14.471Z,2.10
2017-12-12T12:26:42.102Z,2.63
2017-12-12T12:29:09.575Z,2.40
2017-12-12T12:31:37.079Z,2.40
2017-12-12T12:34:04.597Z,2.07
2017-12-12T12:36:32.098Z,2.37
2017-12-12T12:38:59.628Z,2.03
2017-12-12T12:41:27.156Z,1.93
2017-12-12T12:43:54.638Z,3.60
2017-12-12T12:46:22.150Z,1.53
2017-12-12T12:48:49.674Z,2.13
2017-12-12T12:51:17.183Z,1.70
2017-12-12T12:53:44.672Z,1.47
2017-12-12T12:56:12.188Z,1.30
2017-12-12T12:58:40.569Z,1.37
2017-12-12T13:01:08.815Z,1.57
2017-12-12T13:03:36.351Z,3.80
2017-12-12T13:06:03.857Z,3.80
2017-12-12T13:08:31.391Z,1.70
2017-12-12T13:10:58.875Z,1.33
2017-12-12T13:13:26.395Z,1.40
2017-12-12T13:15:53.903Z,2.27
2017-12-12T13:18:21.404Z,2.50
2017-12-12T13:20:48.938Z,1.40
2017-12-12T13:23:16.416Z,2.50
2017-12-12T13:25:43.955Z,2.37
2017-12-12T13:28:11.486Z,1.83
2017-12-12T13:30:38.995Z,1.90
2017-12-12T13:33:07.370Z,1.20
2017-12-12T13:35:34.847Z,1.20
2017-12-12T13:38:03.135Z,2.10
2017-12-12T13:40:31.437Z,1.10
2017-12-12T13:42:58.923Z,1.60
2017-12-12T13:45:26.414Z,1.73
2017-12-12T13:47:53.946Z,3.50
2017-12-12T13:50:21.422Z,1.53
2017-12-12T13:52:48.905Z,1.50
2017-12-12T13:55:16.442Z,2.63
2017-12-12T13:57:43.926Z,3.37
2017-12-12T14:00:11.395Z,1.23
2017-12-12T14:02:39.686Z,0.90
2017-12-12T14:05:07.969Z,2.20
2017-12-12T14:07:36.262Z,1.10
2017-12-12T14:10:04.507Z,2.80
2017-12-12T14:12:32.019Z,1.40
2017-12-12T14:14:59.536Z,1.60
2017-12-12T14:17:27.097Z,1.20
2017-12-12T14:19:54.618Z,1.80
2017-12-12T14:22:22.155Z,1.77
2017-12-12T14:24:50.421Z,1.23
2017-12-12T14:27:17.902Z,1.30
2017-12-12T14:29:46.195Z,3.43
2017-12-12T14:32:13.727Z,2.20
2017-12-12T14:34:41.207Z,1.30
2017-12-12T14:37:09.492Z,1.10
2017-12-12T14:39:37.736Z,1.50
2017-12-12T14:42:05.260Z,1.17
2017-12-12T14:44:32.783Z,4.20
2017-12-12T14:47:01.039Z,1.73
2017-12-12T14:49:28.543Z,2.40
2017-12-12T14:51:56.791Z,2.53
2017-12-12T14:54:24.300Z,1.50
2017-12-12T14:56:51.795Z,2.70
2017-12-12T14:59:19.495Z,2.87
2017-12-12T15:01:46.978Z,2.30
2017-12-12T15:04:14.540Z,2.33
2017-12-12T15:06:42.844Z,3.50
2017-12-12T15:09:10.342Z,2.40
2017-12-12T15:11:37.850Z,6.67
2017-12-12T15:14:06.135Z,8.00
2017-12-12T15:16:34.422Z,3.70
2017-12-12T15:19:01.916Z,6.23
2017-12-12T15:21:29.429Z,10.40
2017-12-12T15:23:56.930Z,10.90
2017-12-12T15:26:24.413Z,3.33
2017-12-12T15:28:51.931Z,7.17
2017-12-12T15:31:20.170Z,15.10
2017-12-12T15:33:47.646Z,4.57
2017-12-12T15:36:15.182Z,5.33
2017-12-12T15:38:42.659Z,4.77
2017-12-12T15:41:10.131Z,5.73
2017-12-12T15:43:37.635Z,5.63
2017-12-12T15:46:05.124Z,10.53
2017-12-12T15:48:32.636Z,4.93
2017-12-12T15:51:00.913Z,6.80
2017-12-12T15:53:29.196Z,4.30
2017-12-12T15:55:57.451Z,3.83
2017-12-12T15:58:24.982Z,4.30
2017-12-12T16:00:52.468Z,2.67
2017-12-12T16:03:19.978Z,5.70
2017-12-12T16:05:48.255Z,3.47
2017-12-12T16:08:16.509Z,8.47
2017-12-12T16:10:44.043Z,3.27
2017-12-12T16:13:11.547Z,3.53
2017-12-12T16:15:39.126Z,2.60
2017-12-12T16:18:07.419Z,2.90
2017-12-12T16:20:34.895Z,3.40
2017-12-12T16:23:02.422Z,3.13
2017-12-12T16:25:29.948Z,3.00
2017-12-12T16:27:57.438Z,4.50
2017-12-12T16:30:24.961Z,2.67
2017-12-12T16:32:52.492Z,3.93
2017-12-12T16:35:20.744Z,3.60
2017-12-12T16:37:48.413Z,4.20
2017-12-12T16:40:15.922Z,4.87
2017-12-12T16:42:43.411Z,4.83
2017-12-12T16:45:10.926Z,3.13
2017-12-12T16:47:39.182Z,3.07
2017-12-12T16:50:06.695Z,3.57
2017-12-12T16:52:34.216Z,4.83
2017-12-12T16:55:02.487Z,5.03
2017-12-12T16:57:29.993Z,4.50
2017-12-12T16:59:57.519Z,4.70
2017-12-12T17:02:25.010Z,4.20
2017-12-12T17:04:52.667Z,4.87
2017-12-12T17:07:20.948Z,4.90
2017-12-12T17:09:49.248Z,7.20
2017-12-12T17:12:16.747Z,15.67
2017-12-12T17:14:44.283Z,18.37
2017-12-12T17:17:11.769Z,13.60
2017-12-12T17:19:39.310Z,17.60
2017-12-12T17:22:06.779Z,11.10
2017-12-12T17:24:34.303Z,6.77
2017-12-12T17:27:02.572Z,63.37
2017-12-12T17:29:30.062Z,43.87
2017-12-12T17:31:57.609Z,140.43
2017-12-12T17:34:25.926Z,40.93
2017-12-12T17:36:53.415Z,215.00
2017-12-12T17:39:20.946Z,145.60
2017-12-12T17:41:48.569Z,54.00
2017-12-12T17:44:16.078Z,13.97
2017-12-12T17:46:43.571Z,18.43
2017-12-12T17:49:11.114Z,23.20
2017-12-12T17:51:38.632Z,21.63
2017-12-12T17:54:06.163Z,6.30
2017-12-12T17:56:33.755Z,8.67
2017-12-12T17:59:01.236Z,15.43
2017-12-12T18:01:29.522Z,13.73
2017-12-12T18:03:57.026Z,18.40
2017-12-12T18:06:24.541Z,5.10
2017-12-12T18:08:52.796Z,5.20
2017-12-12T18:11:20.295Z,5.83
2017-12-12T18:13:47.837Z,4.63
2017-12-12T18:16:16.082Z,3.90
2017-12-12T18:18:43.609Z,4.53
2017-12-12T18:21:11.083Z,5.30
2017-12-12T18:23:38.597Z,5.87
2017-12-12T18:26:06.138Z,5.93
2017-12-12T18:28:33.691Z,7.83
2017-12-12T18:31:01.206Z,8.20
2017-12-12T18:33:29.455Z,10.03
2017-12-12T18:35:56.975Z,18.03
2017-12-12T18:38:24.463Z,8.80
2017-12-12T18:40:51.969Z,7.70
2017-12-12T18:43:20.231Z,11.00
2017-12-12T18:45:47.755Z,11.90
2017-12-12T18:48:15.262Z,9.20
2017-12-12T18:50:42.744Z,13.07
2017-12-12T18:53:11.034Z,7.40
2017-12-12T18:55:39.291Z,15.10
2017-12-12T18:58:06.830Z,11.27
2017-12-12T19:00:34.342Z,10.13
2017-12-12T19:03:02.611Z,9.27
2017-12-12T19:05:30.871Z,13.07
2017-12-12T19:07:58.467Z,12.93
2017-12-12T19:10:26.757Z,10.90
2017-12-12T19:12:54.238Z,15.93
2017-12-12T19:15:21.754Z,17.57
2017-12-12T19:17:50.035Z,16.17
2017-12-12T19:20:17.552Z,15.40
2017-12-12T19:22:45.146Z,13.90
2017-12-12T19:25:12.623Z,14.73
2017-12-12T19:27:40.162Z,8.40
2017-12-12T19:30:07.639Z,11.10
2017-12-12T19:32:35.167Z,9.67
2017-12-12T19:35:02.660Z,7.67
2017-12-12T19:37:30.874Z,7.87
2017-12-12T19:39:59.161Z,10.27
2017-12-12T19:42:27.414Z,8.27
2017-12-12T19:44:54.927Z,9.13
2017-12-12T19:47:22.472Z,11.17
2017-12-12T19:49:49.969Z,12.47
2017-12-12T19:52:17.495Z,12.93
2017-12-12T19:54:45.875Z,11.73
2017-12-12T19:57:14.118Z,8.83
2017-12-12T19:59:41.590Z,9.50
2017-12-12T20:02:09.107Z,10.67
2017-12-12T20:04:36.613Z,9.00
2017-12-12T20:07:04.094Z,13.43
2017-12-12T20:09:32.375Z,7.43
2017-12-12T20:12:00.627Z,8.50
2017-12-12T20:14:28.172Z,9.80
2017-12-12T20:16:55.654Z,10.73
2017-12-12T20:19:23.127Z,10.13
2017-12-12T20:21:50.667Z,8.37
2017-12-12T20:24:18.155Z,8.97
2017-12-12T20:26:45.704Z,7.90
2017-12-12T20:29:13.193Z,12.67
2017-12-12T20:31:40.758Z,11.50
2017-12-12T20:34:09.839Z,11.97
2017-12-12T20:36:37.363Z,9.43
2017-12-12T20:39:04.889Z,11.10
2017-12-12T20:41:33.183Z,9.47
2017-12-12T20:44:01.444Z,9.50
2017-12-12T20:46:28.954Z,8.03
2017-12-12T20:48:56.436Z,13.23
2017-12-12T20:51:23.955Z,8.40
2017-12-12T20:53:52.194Z,8.10
2017-12-12T20:56:19.689Z,7.50
2017-12-12T20:58:47.982Z,7.93
2017-12-12T21:01:15.472Z,8.87
2017-12-12T21:03:42.989Z,12.20
2017-12-12T21:06:10.475Z,12.00
2017-12-12T21:08:37.986Z,10.83
2017-12-12T21:11:05.467Z,10.73
2017-12-12T21:13:32.988Z,7.87
2017-12-12T21:16:00.510Z,11.03
2017-12-12T21:18:29.467Z,7.07
2017-12-12T21:20:57.697Z,6.63
2017-12-12T21:23:25.243Z,6.07
2017-12-12T21:25:52.722Z,8.47
2017-12-12T21:28:20.965Z,9.87
2017-12-12T21:30:48.507Z,9.73
2017-12-12T21:33:16.827Z,10.10
2017-12-12T21:35:44.386Z,10.50
2017-12-12T21:38:11.874Z,9.13
2017-12-12T21:40:40.135Z,13.53
2017-12-12T21:43:07.701Z,15.40
2017-12-12T21:45:35.216Z,15.00
2017-12-12T21:48:02.739Z,13.73
2017-12-12T21:50:30.998Z,14.63
2017-12-12T21:52:58.555Z,10.13
2017-12-12T21:55:26.027Z,11.60
2017-12-12T21:57:53.514Z,9.20
2017-12-12T22:00:21.815Z,8.73
2017-12-12T22:02:49.312Z,8.23
2017-12-12T22:05:16.806Z,7.63
2017-12-12T22:07:44.320Z,9.37
2017-12-12T22:10:11.863Z,7.60
2017-12-12T22:12:39.344Z,8.00
2017-12-12T22:15:06.884Z,9.30
2017-12-12T22:17:34.395Z,12.87
2017-12-12T22:20:01.915Z,14.47
2017-12-12T22:22:29.426Z,14.47
2017-12-12T22:24:56.905Z,12.07
2017-12-12T22:27:24.416Z,12.67
2017-12-12T22:29:51.942Z,9.83
2017-12-12T22:32:20.186Z,11.20
2017-12-12T22:34:47.694Z,10.33
2017-12-12T22:37:15.947Z,13.60
2017-12-12T22:39:43.471Z,16.07
2017-12-12T22:42:10.962Z,24.77
2017-12-12T22:44:38.488Z,9.90
2017-12-12T22:47:06.002Z,8.40
2017-12-12T22:49:33.475Z,7.67
2017-12-12T22:52:00.987Z,8.27
2017-12-12T22:54:28.501Z,10.33
2017-12-12T22:56:56.037Z,7.80
2017-12-12T22:59:23.526Z,6.97
2017-12-12T23:01:51.053Z,7.97
2017-12-12T23:04:18.559Z,8.57
2017-12-12T23:06:46.853Z,11.10
2017-12-12T23:09:15.170Z,7.97
2017-12-12T23:11:42.643Z,7.43
2017-12-12T23:14:10.115Z,10.70
2017-12-12T23:16:37.626Z,8.23
2017-12-12T23:19:05.145Z,10.83
2017-12-12T23:21:32.656Z,7.90
2017-12-12T23:24:00.130Z,7.23
2017-12-12T23:26:27.671Z,8.90
2017-12-12T23:28:56.018Z,7.40
2017-12-12T23:31:23.505Z,11.03
2017-12-12T23:33:51.027Z,8.10
2017-12-12T23:36:18.506Z,5.67
2017-12-12T23:38:45.983Z,8.20
2017-12-12T23:41:13.536Z,6.70
2017-12-12T23:43:41.020Z,10.10
2017-12-12T23:46:08.511Z,8.40
2017-12-12T23:48:36.025Z,6.77
2017-12-12T23:51:03.501Z,8.70
2017-12-12T23:53:31.014Z,18.73
2017-12-12T23:55:58.499Z,20.53
2017-12-12T23:58:26.006Z,8.50
